Terminal Aerodrome Forecast
Issued by NWS

Home | Current Version | Previous Version | Graphics & Text | Print | Product List | Glossary On
Versions: 1 2 3 4 5 6 7 8 9 10 11 12 13 14 15 16 17 18
000
FTUS42 KMHX 201759
TAFOAJ
TAF
KOAJ 201759Z 2018/2118 29003KT P6SM SCT050
     FM202100 21007KT P6SM VCSH BKN050
      TEMPO 2022/2101 3SM TSRA BKN020CB
     FM210400 05005KT P6SM SCT007 BKN015
     FM210700 03006KT P6SM BKN007
     FM211500 04005KT P6SM BKN015
      AMD LTD TO CLD VIS AND WIND=

USA.gov is the U.S. government's official web portal to all federal, state and local government web resources and services.